Time;durP1;ratioP1;P1;durP2;ratioP2;P2;SDS_P1;SDS_P2;PMS_P1;PMS_P2;Temp;Humidity;BMP_temperature;BMP_pressure;BME280_temperature;BME280_humidity;BME280_pressure;Samples;Min_cycle;Max_cycle;Signal;HPM_P1;HPM_P2
2024/01/20 00:01:20;;;;;;;42.33;20.47;;;0.60;99.90;;;;;;5074142;28;20199;-70
2024/01/20 00:03:45;;;;;;;50.90;21.50;;;0.60;99.90;;;;;;5073973;28;20199;-70
2024/01/20 00:06:11;;;;;;;51.43;20.13;;;0.60;99.90;;;;;;5073946;28;20183;-70
2024/01/20 00:08:37;;;;;;;45.83;19.97;;;0.60;99.90;;;;;;5073070;28;20169;-70
2024/01/20 00:11:02;;;;;;;43.43;20.57;;;0.70;99.90;;;;;;5073789;28;20187;-70
2024/01/20 00:13:28;;;;;;;50.10;21.53;;;0.60;99.90;;;;;;5073757;28;20180;-71
2024/01/20 00:15:53;;;;;;;44.77;20.63;;;0.60;99.90;;;;;;5073571;28;20163;-70
2024/01/20 00:18:19;;;;;;;43.13;19.27;;;0.60;99.90;;;;;;5073554;28;20290;-71
2024/01/20 00:20:45;;;;;;;40.60;19.00;;;0.70;99.90;;;;;;5073949;28;20160;-71
2024/01/20 00:23:12;;;;;;;46.67;19.97;;;0.70;99.90;;;;;;5073426;28;20176;-70
2024/01/20 00:25:38;;;;;;;49.23;20.47;;;0.60;99.90;;;;;;5073642;28;20172;-71
2024/01/20 00:28:04;;;;;;;46.80;20.93;;;0.60;99.90;;;;;;5073663;28;20601;-71
2024/01/20 00:30:29;;;;;;;46.90;19.67;;;0.60;99.90;;;;;;5073321;28;20251;-71
2024/01/20 00:32:55;;;;;;;45.07;20.77;;;0.70;99.90;;;;;;5073581;28;20203;-70
2024/01/20 00:35:21;;;;;;;44.33;19.80;;;0.60;99.90;;;;;;5073835;28;20247;-70
2024/01/20 00:37:46;;;;;;;51.53;21.57;;;0.60;99.90;;;;;;5073194;28;20209;-70
2024/01/20 00:40:12;;;;;;;47.93;21.00;;;0.60;99.90;;;;;;5073381;28;20217;-71
2024/01/20 00:42:38;;;;;;;50.63;20.33;;;0.60;99.90;;;;;;5073398;28;20169;-70
2024/01/20 00:45:04;;;;;;;47.93;21.30;;;0.50;99.90;;;;;;5073474;28;20175;-70
2024/01/20 00:47:30;;;;;;;45.07;20.73;;;0.50;99.90;;;;;;5073447;28;20181;-70
2024/01/20 00:49:56;;;;;;;42.80;19.87;;;0.50;99.90;;;;;;5073481;28;20183;-70
2024/01/20 00:52:21;;;;;;;48.23;20.33;;;0.60;99.90;;;;;;5073007;28;20176;-69
2024/01/20 00:54:47;;;;;;;49.57;21.87;;;0.60;99.90;;;;;;5073162;28;20267;-70
2024/01/20 00:57:13;;;;;;;50.17;21.70;;;0.60;99.90;;;;;;5073112;28;20168;-70
2024/01/20 00:59:38;;;;;;;49.30;20.87;;;0.50;99.90;;;;;;5073600;28;20177;-70
2024/01/20 01:02:04;;;;;;;52.73;21.53;;;0.50;99.90;;;;;;5073056;28;20183;-69
2024/01/20 01:04:29;;;;;;;49.30;20.70;;;0.50;99.90;;;;;;5073348;28;20704;-70
2024/01/20 01:06:55;;;;;;;50.53;21.33;;;0.50;99.90;;;;;;5072733;28;20183;-69
2024/01/20 01:09:21;;;;;;;48.50;21.13;;;0.50;99.90;;;;;;5073195;28;20179;-71
2024/01/20 01:11:46;;;;;;;50.53;22.53;;;0.60;99.90;;;;;;5073142;28;20183;-70
2024/01/20 01:14:12;;;;;;;53.17;22.33;;;0.60;99.90;;;;;;5072940;28;20230;-70
2024/01/20 01:16:38;;;;;;;51.87;22.23;;;0.60;99.90;;;;;;5072895;28;20195;-70
2024/01/20 01:19:04;;;;;;;53.53;22.70;;;0.60;99.90;;;;;;5073312;28;20292;-71
2024/01/20 01:21:29;;;;;;;50.10;22.17;;;0.60;99.90;;;;;;5076860;28;20273;-70
2024/01/20 01:23:55;;;;;;;54.73;22.67;;;0.50;99.90;;;;;;5077286;28;20183;-71
2024/01/20 01:26:21;;;;;;;50.77;22.17;;;0.60;99.90;;;;;;5076981;28;20174;-71
2024/01/20 01:28:47;;;;;;;58.07;22.20;;;0.60;99.90;;;;;;5076978;28;20242;-70
2024/01/20 01:31:13;;;;;;;55.37;22.47;;;0.60;99.90;;;;;;5076638;28;20666;-70
2024/01/20 01:33:38;;;;;;;53.23;21.73;;;0.50;99.90;;;;;;5076984;28;20531;-70
2024/01/20 01:36:04;;;;;;;56.97;22.10;;;0.40;99.90;;;;;;5076586;28;20225;-70
2024/01/20 01:38:30;;;;;;;49.50;22.87;;;0.40;99.90;;;;;;5076819;28;20215;-70
2024/01/20 01:40:56;;;;;;;48.23;22.37;;;0.40;99.90;;;;;;5077046;28;20236;-70
2024/01/20 01:43:21;;;;;;;54.43;21.77;;;0.50;99.90;;;;;;5076649;28;20183;-70
2024/01/20 01:45:47;;;;;;;46.43;19.73;;;0.60;99.90;;;;;;5076522;28;20169;-70
2024/01/20 01:48:12;;;;;;;51.67;20.63;;;0.50;99.90;;;;;;5076596;28;20183;-72
2024/01/20 01:50:38;;;;;;;46.10;19.90;;;0.50;99.90;;;;;;5076267;28;20174;-71
2024/01/20 01:53:05;;;;;;;47.07;20.80;;;0.50;99.90;;;;;;5076656;28;20189;-72
2024/01/20 01:55:31;;;;;;;50.07;20.73;;;0.40;99.90;;;;;;5076463;28;20182;-70
2024/01/20 01:57:59;;;;;;;39.23;17.37;;;0.30;99.90;;;;;;5076452;28;20616;-70
2024/01/20 02:00:25;;;;;;;44.03;20.43;;;0.30;99.90;;;;;;5076363;28;20201;-71
2024/01/20 02:02:51;;;;;;;48.13;20.90;;;0.30;99.90;;;;;;5076467;28;20206;-70
2024/01/20 02:05:17;;;;;;;44.90;20.03;;;0.40;99.90;;;;;;5076289;28;20545;-70
2024/01/20 02:07:43;;;;;;;42.03;18.03;;;0.30;99.90;;;;;;5076525;28;20177;-71
2024/01/20 02:10:11;;;;;;;38.07;19.10;;;0.30;99.90;;;;;;5076383;28;20165;-70
2024/01/20 02:12:38;;;;;;;40.50;18.93;;;0.30;99.90;;;;;;5076196;28;20216;-70
2024/01/20 02:15:04;;;;;;;36.87;17.87;;;0.20;99.90;;;;;;5076052;28;20176;-70
2024/01/20 02:17:30;;;;;;;39.60;18.97;;;0.30;99.90;;;;;;5075923;28;20301;-70
2024/01/20 02:19:55;;;;;;;37.23;18.33;;;0.30;99.90;;;;;;5075698;28;20219;-70
2024/01/20 02:22:21;;;;;;;35.30;16.73;;;0.30;99.90;;;;;;5076085;28;20173;-71
2024/01/20 02:24:48;;;;;;;39.77;17.20;;;0.20;99.90;;;;;;5076073;28;20229;-70
2024/01/20 02:27:14;;;;;;;39.97;17.97;;;0.20;99.90;;;;;;5075984;28;20638;-70
2024/01/20 02:29:40;;;;;;;33.97;16.37;;;0.20;99.90;;;;;;5075582;28;20311;-70
2024/01/20 02:32:06;;;;;;;33.83;16.43;;;0.00;99.90;;;;;;5075673;28;20294;-70
2024/01/20 02:34:32;;;;;;;36.73;17.93;;;0.00;99.90;;;;;;5075467;28;20219;-70
2024/01/20 02:36:57;;;;;;;35.10;17.97;;;-0.10;99.90;;;;;;5075669;28;20182;-69
2024/01/20 02:39:23;;;;;;;41.70;19.40;;;0.10;99.90;;;;;;5075802;28;20207;-70
2024/01/20 02:41:48;;;;;;;38.83;18.57;;;0.10;99.90;;;;;;5075692;28;20175;-72
2024/01/20 02:44:14;;;;;;;40.57;19.43;;;0.20;99.90;;;;;;5075768;28;20173;-70
2024/01/20 02:46:40;;;;;;;43.27;18.03;;;0.30;99.90;;;;;;5075542;28;20182;-69
2024/01/20 02:49:05;;;;;;;38.13;18.20;;;0.40;99.90;;;;;;5075393;28;20175;-71
2024/01/20 02:51:31;;;;;;;41.87;20.57;;;0.20;99.90;;;;;;5075557;28;20264;-70
2024/01/20 02:53:57;;;;;;;39.17;19.90;;;0.20;99.90;;;;;;5075603;28;20168;-70
2024/01/20 02:56:24;;;;;;;35.63;16.47;;;0.30;99.90;;;;;;5075436;28;20253;-70
2024/01/20 02:58:50;;;;;;;37.23;19.40;;;0.40;99.90;;;;;;5075281;28;20680;-71
2024/01/20 03:01:15;;;;;;;47.73;20.80;;;0.40;99.90;;;;;;5075362;28;20164;-70
2024/01/20 03:03:41;;;;;;;37.73;19.03;;;0.40;99.90;;;;;;5074936;28;20233;-70
2024/01/20 03:06:07;;;;;;;39.20;19.23;;;0.40;99.90;;;;;;5075231;28;20168;-69
2024/01/20 03:08:32;;;;;;;43.67;19.93;;;0.30;99.90;;;;;;5075215;28;20176;-71
2024/01/20 03:10:58;;;;;;;44.10;20.30;;;0.40;99.90;;;;;;5074966;28;20698;-69
2024/01/20 03:13:24;;;;;;;39.20;19.13;;;0.40;99.90;;;;;;5075055;28;20170;-70
2024/01/20 03:15:49;;;;;;;34.87;18.63;;;0.40;99.90;;;;;;5075057;28;20172;-70
2024/01/20 03:18:15;;;;;;;43.13;19.50;;;0.30;99.90;;;;;;5074874;28;20575;-71
2024/01/20 03:20:40;;;;;;;39.23;20.53;;;0.20;99.90;;;;;;5075042;28;20249;-71
2024/01/20 03:23:06;;;;;;;39.33;19.83;;;0.30;99.90;;;;;;5074887;28;20177;-70
2024/01/20 03:25:32;;;;;;;38.63;19.90;;;0.30;99.90;;;;;;5074724;28;20167;-69
2024/01/20 03:27:57;;;;;;;41.30;19.23;;;0.20;99.90;;;;;;5074715;28;20639;-70
2024/01/20 03:30:23;;;;;;;32.53;17.53;;;0.20;99.90;;;;;;5074289;28;20748;-70
2024/01/20 03:32:51;;;;;;;36.00;18.97;;;0.10;99.90;;;;;;5074863;28;20181;-71
2024/01/20 03:35:16;;;;;;;40.73;19.13;;;0.00;99.90;;;;;;5074544;28;20174;-70
2024/01/20 03:37:42;;;;;;;43.43;19.60;;;0.10;99.90;;;;;;5074720;28;20214;-71
2024/01/20 03:40:08;;;;;;;38.87;19.00;;;0.10;99.90;;;;;;5074436;28;20179;-70
2024/01/20 03:42:33;;;;;;;40.90;19.70;;;0.00;99.90;;;;;;5073853;28;20176;-71
2024/01/20 03:44:59;;;;;;;33.77;17.77;;;0.10;99.90;;;;;;5074496;28;20187;-69
2024/01/20 03:47:25;;;;;;;38.10;18.77;;;0.10;99.90;;;;;;5074433;28;20538;-70
2024/01/20 03:49:50;;;;;;;34.03;18.03;;;0.10;99.90;;;;;;5074175;28;20626;-70
2024/01/20 03:52:16;;;;;;;36.67;18.77;;;0.10;99.90;;;;;;5073048;28;20179;-70
2024/01/20 03:54:42;;;;;;;36.43;18.03;;;0.10;99.90;;;;;;5074198;28;20167;-70
2024/01/20 03:57:08;;;;;;;37.57;17.63;;;0.10;99.90;;;;;;5074092;28;20218;-70
2024/01/20 03:59:33;;;;;;;35.63;16.70;;;0.10;99.90;;;;;;5073945;28;20641;-70
2024/01/20 04:01:59;;;;;;;31.03;16.07;;;0.10;99.90;;;;;;5074183;28;20263;-70
2024/01/20 04:04:25;;;;;;;35.93;16.83;;;-0.10;99.90;;;;;;5074061;28;20283;-71
2024/01/20 04:06:50;;;;;;;30.17;16.87;;;-0.10;99.90;;;;;;5073842;28;20174;-69
2024/01/20 04:09:16;;;;;;;32.37;16.40;;;-0.10;99.90;;;;;;5073656;28;20175;-71
2024/01/20 04:11:42;;;;;;;34.20;17.30;;;-0.10;99.90;;;;;;5073986;28;20271;-70
2024/01/20 04:14:07;;;;;;;34.27;16.87;;;-0.10;99.90;;;;;;5073544;28;20536;-70
2024/01/20 04:16:33;;;;;;;34.07;17.50;;;-0.10;99.90;;;;;;5073737;28;20252;-72
2024/01/20 04:18:58;;;;;;;35.30;18.70;;;0.00;99.90;;;;;;5073373;28;20242;-71
2024/01/20 04:21:24;;;;;;;35.93;17.73;;;0.10;99.90;;;;;;5073626;28;20166;-71
2024/01/20 04:23:50;;;;;;;34.63;17.03;;;0.10;99.90;;;;;;5073387;28;20176;-71
2024/01/20 04:26:16;;;;;;;34.53;16.97;;;0.20;99.90;;;;;;5073549;28;20268;-70
2024/01/20 04:28:41;;;;;;;35.53;17.87;;;0.10;99.90;;;;;;5073375;28;20205;-71
2024/01/20 04:31:07;;;;;;;35.63;18.00;;;0.10;99.90;;;;;;5073338;28;20236;-70
2024/01/20 04:33:34;;;;;;;41.67;19.43;;;0.10;99.90;;;;;;5073259;28;20741;-71
2024/01/20 04:36:01;;;;;;;40.87;19.83;;;0.10;99.90;;;;;;5073527;28;20184;-71
2024/01/20 04:38:27;;;;;;;41.93;19.17;;;0.20;99.90;;;;;;5073510;28;20316;-71
2024/01/20 04:40:53;;;;;;;37.47;18.87;;;0.10;99.90;;;;;;5073109;28;20628;-71
2024/01/20 04:43:19;;;;;;;42.23;18.87;;;0.20;99.90;;;;;;5073314;28;20187;-71
2024/01/20 04:45:45;;;;;;;41.17;20.27;;;0.00;99.90;;;;;;5073193;28;20173;-70
2024/01/20 04:48:10;;;;;;;44.57;20.17;;;0.10;99.90;;;;;;5073164;28;20180;-71
2024/01/20 04:50:36;;;;;;;44.73;21.30;;;0.10;99.90;;;;;;5073152;28;20182;-70
2024/01/20 04:53:02;;;;;;;42.37;20.70;;;0.20;99.90;;;;;;5072977;28;20178;-70
2024/01/20 04:55:27;;;;;;;45.70;21.77;;;0.20;99.90;;;;;;5073027;28;20182;-69
2024/01/20 04:57:53;;;;;;;47.53;23.80;;;0.20;99.90;;;;;;5072830;28;20359;-70
2024/01/20 05:00:18;;;;;;;50.93;24.57;;;0.30;99.90;;;;;;5073229;28;20638;-70
2024/01/20 05:02:44;;;;;;;50.40;23.60;;;0.20;99.90;;;;;;5072996;28;20175;-70
2024/01/20 05:05:09;;;;;;;48.77;23.03;;;0.30;99.90;;;;;;5071674;28;20211;-70
2024/01/20 05:07:35;;;;;;;49.97;22.13;;;0.30;99.90;;;;;;5073034;28;20187;-70
2024/01/20 05:10:00;;;;;;;47.50;23.73;;;0.20;99.90;;;;;;5072799;28;20210;-69
2024/01/20 05:12:26;;;;;;;47.67;22.40;;;0.30;99.90;;;;;;5072454;28;20277;-69
2024/01/20 05:14:53;;;;;;;48.57;23.57;;;0.30;99.90;;;;;;5073424;28;20212;-71
2024/01/20 05:17:18;;;;;;;45.70;22.30;;;0.40;99.90;;;;;;5072581;28;20204;-71
2024/01/20 05:19:44;;;;;;;42.97;22.20;;;0.30;99.90;;;;;;5072751;28;20215;-70
2024/01/20 05:22:09;;;;;;;41.97;20.53;;;0.30;99.90;;;;;;5072938;28;20177;-70
2024/01/20 05:24:35;;;;;;;46.53;21.70;;;0.30;99.90;;;;;;5072884;28;20171;-70
2024/01/20 05:27:00;;;;;;;39.57;19.53;;;0.30;99.90;;;;;;5072430;28;20173;-70
2024/01/20 05:29:26;;;;;;;43.87;20.93;;;0.30;99.90;;;;;;5072562;28;20243;-71
2024/01/20 05:31:51;;;;;;;42.37;20.87;;;0.10;99.90;;;;;;5073287;28;20238;-71
2024/01/20 05:34:17;;;;;;;40.20;20.03;;;0.00;99.90;;;;;;5073054;28;20219;-70
2024/01/20 05:36:43;;;;;;;39.70;20.87;;;0.00;99.90;;;;;;5072640;28;20179;-70
2024/01/20 05:39:08;;;;;;;39.30;19.73;;;-0.10;99.90;;;;;;5072482;28;20204;-70
2024/01/20 05:41:34;;;;;;;43.80;21.60;;;0.00;99.90;;;;;;5072294;28;20523;-70
2024/01/20 05:44:02;;;;;;;44.87;20.17;;;0.00;99.90;;;;;;5072813;28;20178;-70
2024/01/20 05:46:27;;;;;;;39.00;19.77;;;0.00;99.90;;;;;;5072536;28;20162;-69
2024/01/20 05:48:53;;;;;;;47.40;20.67;;;0.10;99.90;;;;;;5072605;28;20528;-70
2024/01/20 05:51:19;;;;;;;46.30;22.13;;;0.00;99.90;;;;;;5072632;28;20173;-71
2024/01/20 05:53:45;;;;;;;44.03;22.77;;;-0.10;99.90;;;;;;5072187;28;20174;-70
2024/01/20 05:56:11;;;;;;;46.83;23.63;;;-0.10;99.90;;;;;;5072081;28;20233;-71
2024/01/20 05:58:36;;;;;;;43.63;22.60;;;-0.10;99.90;;;;;;5072485;28;20220;-70
2024/01/20 06:01:02;;;;;;;47.90;23.80;;;-0.10;99.90;;;;;;5072712;28;20260;-70
2024/01/20 06:03:27;;;;;;;41.87;19.97;;;-0.10;99.90;;;;;;5072740;28;20208;-70
2024/01/20 06:05:53;;;;;;;42.13;21.00;;;-0.20;99.90;;;;;;5074161;28;20226;-70
2024/01/20 06:08:19;;;;;;;44.10;20.37;;;-0.20;99.90;;;;;;5075795;28;20703;-70
2024/01/20 06:10:45;;;;;;;47.63;23.47;;;-0.20;99.90;;;;;;5075615;28;20204;-70
2024/01/20 06:13:10;;;;;;;45.10;22.07;;;-0.20;99.90;;;;;;5075926;28;20178;-70
2024/01/20 06:15:36;;;;;;;46.30;22.33;;;-0.10;99.90;;;;;;5075993;28;20207;-71
2024/01/20 06:18:03;;;;;;;46.33;23.40;;;-0.10;99.90;;;;;;5075725;28;20188;-71
2024/01/20 06:20:29;;;;;;;43.33;22.33;;;-0.10;99.90;;;;;;5076236;28;20185;-71
2024/01/20 06:22:54;;;;;;;52.97;23.43;;;-0.10;99.90;;;;;;5075905;28;20170;-71
2024/01/20 06:25:20;;;;;;;44.13;22.00;;;-0.10;99.90;;;;;;5075443;28;20179;-71
2024/01/20 06:27:45;;;;;;;45.53;22.23;;;-0.10;99.90;;;;;;5075976;28;20251;-71
2024/01/20 06:30:11;;;;;;;50.23;22.93;;;0.00;99.90;;;;;;5075307;28;20277;-71
2024/01/20 06:32:37;;;;;;;44.43;20.07;;;0.00;99.90;;;;;;5075927;28;20252;-72
2024/01/20 06:35:03;;;;;;;47.07;20.30;;;-0.10;99.90;;;;;;5075810;28;20266;-70
2024/01/20 06:37:28;;;;;;;45.63;22.37;;;-0.10;99.90;;;;;;5075076;28;20171;-71
2024/01/20 06:39:54;;;;;;;43.77;22.63;;;-0.20;99.90;;;;;;5074759;28;20185;-71
2024/01/20 06:42:19;;;;;;;42.60;22.30;;;-0.20;99.90;;;;;;5075770;28;20197;-71
2024/01/20 06:44:45;;;;;;;47.17;22.40;;;-0.10;99.90;;;;;;5075604;28;20170;-69
2024/01/20 06:47:11;;;;;;;43.00;21.30;;;0.10;99.90;;;;;;5075241;28;20629;-70
2024/01/20 06:49:40;;;;;;;42.77;20.30;;;0.10;99.90;;;;;;5075466;28;20642;-70
2024/01/20 06:52:05;;;;;;;38.97;20.20;;;0.10;99.90;;;;;;5075271;28;20190;-71
2024/01/20 06:54:31;;;;;;;43.20;19.83;;;0.00;99.90;;;;;;5074966;28;20171;-70
2024/01/20 06:56:57;;;;;;;44.60;21.33;;;0.10;99.90;;;;;;5075225;28;20164;-71
2024/01/20 06:59:22;;;;;;;45.47;20.80;;;0.20;99.90;;;;;;5074664;28;20211;-71
2024/01/20 07:01:48;;;;;;;36.80;20.07;;;0.20;99.90;;;;;;5075168;28;20177;-71
2024/01/20 07:04:13;;;;;;;38.33;19.70;;;0.20;99.90;;;;;;5075289;28;20592;-71
2024/01/20 07:06:39;;;;;;;36.23;19.13;;;0.10;99.90;;;;;;5074885;28;20649;-71
2024/01/20 07:09:05;;;;;;;36.93;19.37;;;0.30;99.90;;;;;;5074858;28;20727;-71
2024/01/20 07:11:32;;;;;;;41.53;20.80;;;0.30;99.90;;;;;;5074880;28;20176;-70
2024/01/20 07:13:57;;;;;;;39.47;19.30;;;0.30;99.90;;;;;;5074522;28;20180;-70
2024/01/20 07:16:23;;;;;;;37.20;19.37;;;0.30;99.90;;;;;;5074377;28;20180;-70
2024/01/20 07:18:49;;;;;;;36.13;18.43;;;0.30;99.90;;;;;;5074268;28;20207;-70
2024/01/20 07:21:15;;;;;;;32.43;16.83;;;0.20;99.90;;;;;;5074490;28;20523;-70
2024/01/20 07:23:40;;;;;;;34.10;17.77;;;0.00;99.90;;;;;;5074363;28;20709;-70
2024/01/20 07:26:06;;;;;;;32.40;17.10;;;-0.10;99.90;;;;;;5074782;28;20219;-71
2024/01/20 07:28:31;;;;;;;32.00;16.67;;;0.00;99.90;;;;;;5074668;28;20185;-69
2024/01/20 07:30:57;;;;;;;31.30;16.23;;;-0.10;99.90;;;;;;5074073;28;20279;-71
2024/01/20 07:33:23;;;;;;;33.07;16.67;;;0.00;99.90;;;;;;5074593;28;20176;-71
2024/01/20 07:35:48;;;;;;;33.67;16.97;;;-0.10;99.90;;;;;;5074129;28;20254;-70
2024/01/20 07:38:14;;;;;;;31.03;16.70;;;-0.10;99.90;;;;;;5073950;28;20214;-70
2024/01/20 07:40:41;;;;;;;33.80;18.13;;;0.00;99.90;;;;;;5074325;28;20203;-70
2024/01/20 07:43:06;;;;;;;35.30;17.97;;;0.10;99.90;;;;;;5073977;28;20262;-69
2024/01/20 07:45:32;;;;;;;30.57;16.90;;;0.20;99.90;;;;;;5074192;28;20180;-69
2024/01/20 07:48:00;;;;;;;31.37;16.33;;;0.10;99.90;;;;;;5074244;28;20624;-70
2024/01/20 07:50:27;;;;;;;28.93;16.33;;;0.30;99.90;;;;;;5074149;28;20181;-70
2024/01/20 07:52:52;;;;;;;29.63;15.87;;;0.10;99.90;;;;;;5073437;28;20180;-72
2024/01/20 07:55:18;;;;;;;27.40;15.07;;;0.00;99.90;;;;;;5074084;28;20179;-70
2024/01/20 07:57:43;;;;;;;29.47;15.17;;;-0.10;99.90;;;;;;5073976;28;20670;-71
2024/01/20 08:00:13;;;;;;;28.70;16.47;;;-0.10;99.90;;;;;;5073659;28;20180;-70
2024/01/20 08:02:39;;;;;;;34.07;16.57;;;-0.10;99.90;;;;;;5074084;28;20229;-70
2024/01/20 08:05:05;;;;;;;27.03;15.67;;;-0.10;99.90;;;;;;5073632;28;20202;-72
2024/01/20 08:07:31;;;;;;;30.20;15.30;;;0.00;99.90;;;;;;5073641;28;20181;-70
2024/01/20 08:09:57;;;;;;;28.13;15.10;;;0.00;99.90;;;;;;5074080;28;20180;-70
2024/01/20 08:12:23;;;;;;;27.63;14.47;;;0.00;99.90;;;;;;5073293;28;20200;-70
2024/01/20 08:14:48;;;;;;;24.57;14.37;;;0.00;99.90;;;;;;5073927;28;20632;-71
2024/01/20 08:17:14;;;;;;;25.50;15.03;;;0.10;99.90;;;;;;5073260;28;20199;-69
2024/01/20 08:19:40;;;;;;;27.60;14.53;;;0.20;99.90;;;;;;5073413;28;20204;-71
2024/01/20 08:22:07;;;;;;;27.40;16.00;;;0.20;99.90;;;;;;5073241;28;20174;-71
2024/01/20 08:24:32;;;;;;;30.37;15.63;;;0.10;99.90;;;;;;5073595;28;20180;-71
2024/01/20 08:26:58;;;;;;;35.87;17.80;;;0.10;99.90;;;;;;5073594;28;20169;-70
2024/01/20 08:29:23;;;;;;;32.70;17.47;;;0.20;99.90;;;;;;5072803;28;20280;-70
2024/01/20 08:31:49;;;;;;;37.00;18.10;;;0.10;99.90;;;;;;5072866;28;20179;-70
2024/01/20 08:34:15;;;;;;;34.07;19.23;;;0.00;99.90;;;;;;5073645;28;20186;-71
2024/01/20 08:36:40;;;;;;;34.90;18.17;;;0.00;99.90;;;;;;5073034;28;20172;-71
2024/01/20 08:39:06;;;;;;;35.73;17.63;;;0.00;99.90;;;;;;5073259;28;20291;-71
2024/01/20 08:41:32;;;;;;;28.53;16.47;;;0.10;99.90;;;;;;5073205;28;20175;-72
2024/01/20 08:43:58;;;;;;;25.47;15.03;;;0.10;99.90;;;;;;5072721;28;20170;-70
2024/01/20 08:46:25;;;;;;;25.73;14.17;;;0.20;99.90;;;;;;5073072;28;20171;-70
2024/01/20 08:48:51;;;;;;;27.77;15.47;;;-0.10;99.90;;;;;;5072336;28;20174;-71
2024/01/20 08:51:16;;;;;;;26.07;15.17;;;-0.10;99.90;;;;;;5073045;28;20170;-70
2024/01/20 08:53:42;;;;;;;24.20;14.67;;;-0.10;99.90;;;;;;5073103;28;20178;-71
2024/01/20 08:56:08;;;;;;;28.60;16.20;;;0.00;99.90;;;;;;5072873;28;20164;-69
2024/01/20 08:58:34;;;;;;;28.90;16.57;;;0.00;99.90;;;;;;5072390;28;20306;-71
2024/01/20 09:00:59;;;;;;;30.10;16.53;;;0.10;99.90;;;;;;5072830;28;20211;-71
2024/01/20 09:03:25;;;;;;;37.17;18.13;;;0.00;99.90;;;;;;5073150;28;20203;-71
2024/01/20 09:05:50;;;;;;;32.27;18.10;;;0.00;99.90;;;;;;5072821;28;20178;-70
2024/01/20 09:08:16;;;;;;;29.40;16.50;;;0.00;99.90;;;;;;5072832;28;20170;-71
2024/01/20 09:10:42;;;;;;;31.77;16.13;;;-0.10;99.90;;;;;;5072296;28;20272;-73
2024/01/20 09:13:07;;;;;;;26.50;15.63;;;-0.10;99.90;;;;;;5072854;28;20164;-70
2024/01/20 09:15:33;;;;;;;28.33;15.47;;;0.00;99.90;;;;;;5072892;28;20166;-70
2024/01/20 09:17:59;;;;;;;25.50;15.47;;;0.10;99.90;;;;;;5072108;28;20207;-71
2024/01/20 09:20:24;;;;;;;27.27;15.43;;;0.10;99.90;;;;;;5072427;28;20259;-69
2024/01/20 09:22:50;;;;;;;30.93;16.23;;;0.20;99.90;;;;;;5072581;28;20501;-72
2024/01/20 09:25:16;;;;;;;28.17;15.83;;;0.30;99.90;;;;;;5072923;28;20164;-70
2024/01/20 09:27:42;;;;;;;31.77;16.87;;;0.50;99.90;;;;;;5072493;28;20225;-70
2024/01/20 09:30:09;;;;;;;32.53;17.07;;;0.60;99.90;;;;;;5072420;28;20212;-70
2024/01/20 09:32:35;;;;;;;27.27;15.50;;;0.70;99.90;;;;;;5072433;28;20182;-69
2024/01/20 09:35:01;;;;;;;24.47;15.03;;;0.80;99.90;;;;;;5072348;28;20183;-70
2024/01/20 09:37:26;;;;;;;24.20;13.57;;;0.60;99.90;;;;;;5072340;28;20180;-72
2024/01/20 09:39:52;;;;;;;26.67;14.07;;;0.40;99.90;;;;;;5072781;28;20179;-71
2024/01/20 09:42:18;;;;;;;25.97;14.80;;;0.40;99.90;;;;;;5076223;28;20168;-70
2024/01/20 09:44:44;;;;;;;24.03;14.27;;;0.50;99.90;;;;;;5076675;28;20183;-70
2024/01/20 09:47:11;;;;;;;24.03;14.10;;;0.40;99.90;;;;;;5076561;28;20183;-70
2024/01/20 09:49:37;;;;;;;20.13;12.93;;;0.40;99.90;;;;;;5075946;28;20711;-71
2024/01/20 09:52:09;;;;;;;22.80;12.20;;;0.30;99.90;;;;;;5076552;28;20200;-71
2024/01/20 09:54:41;;;;;;;20.00;11.70;;;0.30;99.90;;;;;;5075870;28;20199;-70
2024/01/20 09:57:11;;;;;;;19.37;12.43;;;0.30;99.90;;;;;;5076123;28;20591;-71
2024/01/20 09:59:40;;;;;;;18.83;12.43;;;0.50;99.90;;;;;;5076187;28;20310;-72
2024/01/20 10:02:10;;;;;;;21.03;12.83;;;0.60;99.90;;;;;;5076045;28;20254;-70
2024/01/20 10:04:41;;;;;;;15.27;10.17;;;1.10;99.90;;;;;;5076293;28;20658;-71
2024/01/20 10:07:07;;;;;;;19.40;12.17;;;1.40;99.90;;;;;;5075874;28;20168;-70
2024/01/20 10:09:32;;;;;;;18.37;12.10;;;1.30;99.90;;;;;;5075559;28;20264;-69
2024/01/20 10:11:59;;;;;;;16.10;11.10;;;1.40;99.90;;;;;;5075657;28;20176;-69
2024/01/20 10:14:25;;;;;;;19.87;12.07;;;1.70;99.90;;;;;;5076319;28;20255;-70
2024/01/20 10:16:50;;;;;;;16.20;11.87;;;1.90;99.90;;;;;;5075408;28;20251;-69
2024/01/20 10:19:16;;;;;;;16.40;11.13;;;2.00;99.90;;;;;;5075696;28;20576;-68
2024/01/20 10:21:42;;;;;;;18.73;11.40;;;2.20;99.90;;;;;;5075312;28;20172;-69
2024/01/20 10:24:08;;;;;;;19.20;11.30;;;2.20;99.90;;;;;;5075690;28;20219;-70
2024/01/20 10:26:43;;;;;;;14.10;10.73;;;2.60;99.90;;;;;;5075610;28;20645;-69
2024/01/20 10:29:09;;;;;;;18.50;12.40;;;2.90;99.90;;;;;;5075388;28;20168;-70
2024/01/20 10:31:35;;;;;;;18.90;11.70;;;3.10;99.90;;;;;;5075210;28;20252;-70
2024/01/20 10:34:01;;;;;;;16.43;12.10;;;3.70;99.90;;;;;;5075383;28;20601;-70
2024/01/20 10:36:28;;;;;;;15.30;11.23;;;4.50;99.90;;;;;;5075380;28;20297;-71
2024/01/20 10:38:53;;;;;;;16.17;12.53;;;5.20;99.90;;;;;;5075539;28;20224;-72
2024/01/20 10:41:23;;;;;;;14.60;10.43;;;5.60;99.90;;;;;;5075079;28;20252;-70
2024/01/20 10:44:04;;;;;;;15.93;10.53;;;6.00;99.60;;;;;;5075502;28;20227;-71
2024/01/20 10:46:34;;;;;;;14.73;11.17;;;5.80;99.90;;;;;;5075311;28;20647;-70
2024/01/20 10:49:03;;;;;;;14.73;13.03;;;6.20;99.20;;;;;;5074931;28;20623;-71
2024/01/20 10:51:31;;;;;;;12.37;10.50;;;6.50;98.90;;;;;;5075119;28;20248;-71
2024/01/20 10:53:57;;;;;;;16.93;12.27;;;6.30;97.40;;;;;;5075288;28;20624;-71
2024/01/20 10:56:26;;;;;;;16.17;11.13;;;6.30;98.10;;;;;;5075303;28;20179;-71
2024/01/20 10:59:10;;;;;;;13.57;10.37;;;6.80;97.40;;;;;;5074131;28;20311;-70
2024/01/20 11:01:40;;;;;;;13.47;10.70;;;6.90;96.20;;;;;;5075105;28;20173;-71
2024/01/20 11:04:07;;;;;;;14.03;10.40;;;7.50;95.10;;;;;;5075011;28;20264;-71
2024/01/20 11:06:35;;;;;;;14.40;10.50;;;8.10;92.80;;;;;;5074507;28;20524;-72
2024/01/20 11:09:02;;;;;;;16.30;10.23;;;8.40;90.90;;;;;;5075224;28;20226;-72
2024/01/20 11:11:29;;;;;;;14.70;11.37;;;8.10;91.30;;;;;;5074507;28;20183;-71
2024/01/20 11:14:01;;;;;;;14.70;11.10;;;7.70;92.50;;;;;;5074271;28;20196;-71
2024/01/20 11:16:36;;;;;;;14.97;11.40;;;8.00;91.90;;;;;;5074554;28;20198;-70
2024/01/20 11:19:10;;;;;;;16.20;11.53;;;7.50;92.10;;;;;;5074685;28;20675;-70
2024/01/20 11:21:36;;;;;;;16.77;11.73;;;6.90;93.20;;;;;;5074521;28;20663;-69
2024/01/20 11:24:04;;;;;;;15.40;11.97;;;6.70;96.00;;;;;;5074987;28;20259;-69
2024/01/20 11:26:34;;;;;;;16.17;11.97;;;7.00;95.00;;;;;;5074005;28;20200;-72
2024/01/20 11:29:05;;;;;;;14.90;11.37;;;7.30;94.60;;;;;;5073718;28;20774;-70
2024/01/20 11:31:31;;;;;;;17.63;11.83;;;7.30;94.10;;;;;;5074263;28;20279;-69
2024/01/20 11:34:02;;;;;;;14.90;11.97;;;6.50;95.80;;;;;;5073964;28;20156;-68
2024/01/20 11:36:31;;;;;;;18.60;11.97;;;5.60;97.80;;;;;;5074356;28;20255;-69
2024/01/20 11:38:57;;;;;;;17.37;12.37;;;5.30;99.50;;;;;;5074178;28;20207;-69
2024/01/20 11:41:23;;;;;;;19.13;11.73;;;5.40;99.50;;;;;;5073811;28;20188;-69
2024/01/20 11:43:49;;;;;;;18.13;12.30;;;5.50;99.90;;;;;;5074088;28;20210;-71
2024/01/20 11:46:15;;;;;;;17.33;12.80;;;5.70;99.10;;;;;;5073942;28;20252;-69
2024/01/20 11:48:42;;;;;;;18.93;12.37;;;6.30;98.70;;;;;;5074085;28;20230;-70
2024/01/20 11:51:08;;;;;;;18.70;12.70;;;6.50;97.60;;;;;;5074363;28;20263;-70
2024/01/20 11:53:34;;;;;;;16.77;12.23;;;6.50;97.80;;;;;;5073850;28;20338;-70
2024/01/20 11:56:01;;;;;;;17.33;13.07;;;6.90;96.90;;;;;;5073480;28;20216;-69
2024/01/20 11:58:28;;;;;;;15.63;12.00;;;7.20;96.30;;;;;;5072473;28;20695;-69
2024/01/20 12:00:54;;;;;;;16.50;12.17;;;6.70;95.20;;;;;;5073697;28;20337;-69
2024/01/20 12:03:21;;;;;;;18.07;12.77;;;6.40;96.30;;;;;;5073401;28;20246;-68
2024/01/20 12:05:47;;;;;;;18.23;13.00;;;6.40;97.30;;;;;;5073048;28;20180;-69
2024/01/20 12:08:13;;;;;;;19.67;13.13;;;6.30;98.10;;;;;;5073380;28;20176;-70
2024/01/20 12:10:42;;;;;;;19.63;13.40;;;6.70;98.20;;;;;;5073282;28;20219;-69
2024/01/20 12:13:07;;;;;;;18.47;12.90;;;6.90;97.20;;;;;;5073065;28;20668;-69
2024/01/20 12:15:36;;;;;;;19.10;12.77;;;6.50;96.80;;;;;;5073836;28;20164;-69
2024/01/20 12:18:02;;;;;;;19.57;13.07;;;6.30;97.70;;;;;;5073693;28;20203;-68
2024/01/20 12:20:27;;;;;;;19.23;12.90;;;6.00;98.10;;;;;;5073633;28;20172;-69
2024/01/20 12:22:59;;;;;;;18.33;13.23;;;5.80;98.20;;;;;;5072747;28;20226;-68
2024/01/20 12:25:29;;;;;;;17.00;11.97;;;5.60;98.50;;;;;;5073185;28;20172;-69
2024/01/20 12:27:55;;;;;;;16.53;12.20;;;5.60;99.70;;;;;;5072569;28;20200;-68
2024/01/20 12:30:20;;;;;;;20.60;13.10;;;5.50;99.40;;;;;;5072892;28;20252;-69